sensor_id;sensor_type;location;lat;lon;timestamp;pressure;altitude;pressure_sealevel;temperature;humidity
76858;BME280;65830;0.000;0.000;2022-12-11T00:00:36;97782.84;;;9.87;81.80
76858;BME280;65830;0.000;0.000;2022-12-11T00:03:02;97814.94;;;9.69;81.86
76858;BME280;65830;0.000;0.000;2022-12-11T00:05:27;97799.13;;;9.61;81.72
76858;BME280;65830;0.000;0.000;2022-12-11T00:07:52;97793.25;;;9.50;82.03
76858;BME280;65830;0.000;0.000;2022-12-11T00:10:18;97832.06;;;9.35;81.97
76858;BME280;65830;0.000;0.000;2022-12-11T00:12:43;97747.84;;;9.39;82.47
76858;BME280;65830;0.000;0.000;2022-12-11T00:15:09;97740.09;;;9.37;82.60
76858;BME280;65830;0.000;0.000;2022-12-11T00:17:34;97736.78;;;9.35;82.41
76858;BME280;65830;0.000;0.000;2022-12-11T00:20:00;97724.19;;;9.22;82.62
76858;BME280;65830;0.000;0.000;2022-12-11T00:22:28;97720.91;;;9.35;82.31
76858;BME280;65830;0.000;0.000;2022-12-11T00:24:53;97703.31;;;9.04;83.07
76858;BME280;65830;0.000;0.000;2022-12-11T00:27:19;97717.66;;;9.10;82.83
76858;BME280;65830;0.000;0.000;2022-12-11T00:29:46;97698.59;;;9.14;83.44
76858;BME280;65830;0.000;0.000;2022-12-11T00:32:11;97728.38;;;9.31;82.97
76858;BME280;65830;0.000;0.000;2022-12-11T00:34:36;97733.06;;;9.67;82.28
76858;BME280;65830;0.000;0.000;2022-12-11T00:37:02;97734.72;;;9.83;80.85
76858;BME280;65830;0.000;0.000;2022-12-11T00:39:27;97702.56;;;9.71;80.75
76858;BME280;65830;0.000;0.000;2022-12-11T00:41:53;97734.06;;;9.43;81.63
76858;BME280;65830;0.000;0.000;2022-12-11T00:44:18;97744.13;;;9.86;81.50
76858;BME280;65830;0.000;0.000;2022-12-11T00:46:44;97755.16;;;9.74;81.14
76858;BME280;65830;0.000;0.000;2022-12-11T00:49:10;97744.06;;;9.56;81.46
76858;BME280;65830;0.000;0.000;2022-12-11T00:51:35;97746.91;;;9.31;82.06
76858;BME280;65830;0.000;0.000;2022-12-11T00:54:01;97718.06;;;9.60;82.37
76858;BME280;65830;0.000;0.000;2022-12-11T00:56:27;97724.47;;;9.80;81.68
76858;BME280;65830;0.000;0.000;2022-12-11T00:58:52;97742.00;;;9.43;82.35
76858;BME280;65830;0.000;0.000;2022-12-11T01:01:22;97704.28;;;9.64;82.31
76858;BME280;65830;0.000;0.000;2022-12-11T01:03:50;97708.75;;;9.64;82.48
76858;BME280;65830;0.000;0.000;2022-12-11T01:06:17;97704.06;;;9.51;82.12
76858;BME280;65830;0.000;0.000;2022-12-11T01:08:43;97687.56;;;9.64;82.55
76858;BME280;65830;0.000;0.000;2022-12-11T01:11:10;97677.81;;;9.94;81.63
76858;BME280;65830;0.000;0.000;2022-12-11T01:13:36;97658.16;;;9.88;81.43
76858;BME280;65830;0.000;0.000;2022-12-11T01:16:12;97659.81;;;9.89;81.38
76858;BME280;65830;0.000;0.000;2022-12-11T01:18:38;97676.50;;;9.75;81.60
76858;BME280;65830;0.000;0.000;2022-12-11T01:21:04;97684.38;;;9.83;81.67
76858;BME280;65830;0.000;0.000;2022-12-11T01:23:30;97675.59;;;9.68;82.22
76858;BME280;65830;0.000;0.000;2022-12-11T01:25:55;97670.88;;;9.63;82.15
76858;BME280;65830;0.000;0.000;2022-12-11T01:28:21;97657.69;;;9.85;82.26
76858;BME280;65830;0.000;0.000;2022-12-11T01:30:46;97659.53;;;9.99;81.36
76858;BME280;65830;0.000;0.000;2022-12-11T01:33:12;97651.03;;;9.89;81.50
76858;BME280;65830;0.000;0.000;2022-12-11T01:35:38;97650.38;;;10.02;81.01
76858;BME280;65830;0.000;0.000;2022-12-11T01:38:04;97662.97;;;10.29;80.68
76858;BME280;65830;0.000;0.000;2022-12-11T01:40:29;97663.44;;;10.18;80.46
76858;BME280;65830;0.000;0.000;2022-12-11T01:42:55;97638.88;;;10.09;80.81
76858;BME280;65830;0.000;0.000;2022-12-11T01:47:46;97598.34;;;10.30;80.18
76858;BME280;65830;0.000;0.000;2022-12-11T01:50:12;97579.66;;;10.02;81.02
76858;BME280;65830;0.000;0.000;2022-12-11T01:52:37;97544.44;;;9.87;81.17
76858;BME280;65830;0.000;0.000;2022-12-11T01:55:04;97521.44;;;9.87;81.25
76858;BME280;65830;0.000;0.000;2022-12-11T01:57:30;97515.88;;;9.82;81.38
76858;BME280;65830;0.000;0.000;2022-12-11T01:59:55;97529.41;;;9.72;81.91
76858;BME280;65830;0.000;0.000;2022-12-11T02:02:22;97544.28;;;10.10;81.34
76858;BME280;65830;0.000;0.000;2022-12-11T02:04:50;97546.84;;;9.82;81.77
76858;BME280;65830;0.000;0.000;2022-12-11T02:07:15;97549.88;;;9.64;81.98
76858;BME280;65830;0.000;0.000;2022-12-11T02:09:42;97604.31;;;9.51;82.47
76858;BME280;65830;0.000;0.000;2022-12-11T02:14:55;97523.50;;;10.07;82.17
76858;BME280;65830;0.000;0.000;2022-12-11T02:20:03;97559.91;;;9.83;82.13
76858;BME280;65830;0.000;0.000;2022-12-11T02:22:40;97547.06;;;10.02;81.97
76858;BME280;65830;0.000;0.000;2022-12-11T02:27:53;97539.78;;;10.25;81.62
76858;BME280;65830;0.000;0.000;2022-12-11T02:30:21;97534.75;;;9.94;82.21
76858;BME280;65830;0.000;0.000;2022-12-11T02:32:57;97537.56;;;9.92;82.72
76858;BME280;65830;0.000;0.000;2022-12-11T02:35:25;97534.19;;;9.99;82.80
76858;BME280;65830;0.000;0.000;2022-12-11T02:37:55;97538.00;;;10.11;82.72
76858;BME280;65830;0.000;0.000;2022-12-11T02:40:21;97545.19;;;10.60;81.69
76858;BME280;65830;0.000;0.000;2022-12-11T02:42:48;97527.81;;;10.51;81.92
76858;BME280;65830;0.000;0.000;2022-12-11T02:45:15;97521.56;;;10.37;82.25
76858;BME280;65830;0.000;0.000;2022-12-11T02:47:42;97518.09;;;10.37;82.08
76858;BME280;65830;0.000;0.000;2022-12-11T02:50:11;97515.34;;;10.51;82.16
76858;BME280;65830;0.000;0.000;2022-12-11T02:52:38;97502.69;;;10.47;81.93
76858;BME280;65830;0.000;0.000;2022-12-11T02:55:05;97496.22;;;10.34;81.80
76858;BME280;65830;0.000;0.000;2022-12-11T02:57:32;97493.84;;;10.40;81.86
76858;BME280;65830;0.000;0.000;2022-12-11T03:00:01;97507.72;;;10.63;81.44
76858;BME280;65830;0.000;0.000;2022-12-11T03:02:27;97514.69;;;10.43;82.34
76858;BME280;65830;0.000;0.000;2022-12-11T03:04:52;97513.91;;;10.49;82.48
76858;BME280;65830;0.000;0.000;2022-12-11T03:07:19;97517.06;;;10.59;82.50
76858;BME280;65830;0.000;0.000;2022-12-11T03:09:48;97538.47;;;10.58;82.22
76858;BME280;65830;0.000;0.000;2022-12-11T03:12:16;97515.78;;;11.11;81.00
76858;BME280;65830;0.000;0.000;2022-12-11T03:14:42;97497.88;;;11.20;79.87
76858;BME280;65830;0.000;0.000;2022-12-11T03:19:38;97531.97;;;10.88;80.74
76858;BME280;65830;0.000;0.000;2022-12-11T03:22:21;97530.28;;;10.81;80.76
76858;BME280;65830;0.000;0.000;2022-12-11T03:24:58;97542.59;;;10.88;81.29
76858;BME280;65830;0.000;0.000;2022-12-11T03:27:36;97550.72;;;11.15;80.60
76858;BME280;65830;0.000;0.000;2022-12-11T03:30:11;97546.84;;;11.46;80.14
76858;BME280;65830;0.000;0.000;2022-12-11T03:32:39;97546.25;;;11.57;79.97
76858;BME280;65830;0.000;0.000;2022-12-11T03:35:15;97551.72;;;11.42;79.98
76858;BME280;65830;0.000;0.000;2022-12-11T03:37:42;97547.91;;;11.23;80.57
76858;BME280;65830;0.000;0.000;2022-12-11T03:40:11;97549.50;;;11.18;80.54
76858;BME280;65830;0.000;0.000;2022-12-11T03:42:38;97544.34;;;11.09;80.73
76858;BME280;65830;0.000;0.000;2022-12-11T03:45:04;97563.50;;;10.98;80.54
76858;BME280;65830;0.000;0.000;2022-12-11T03:47:31;97562.50;;;11.06;80.43
76858;BME280;65830;0.000;0.000;2022-12-11T03:49:57;97565.00;;;10.86;81.06
76858;BME280;65830;0.000;0.000;2022-12-11T03:52:24;97556.25;;;10.64;81.81
76858;BME280;65830;0.000;0.000;2022-12-11T03:54:51;97534.19;;;10.57;82.24
76858;BME280;65830;0.000;0.000;2022-12-11T03:57:20;97541.38;;;10.91;81.60
76858;BME280;65830;0.000;0.000;2022-12-11T03:59:47;97544.91;;;10.48;81.87
76858;BME280;65830;0.000;0.000;2022-12-11T04:02:12;97541.13;;;10.36;82.43
76858;BME280;65830;0.000;0.000;2022-12-11T04:04:39;97542.94;;;10.36;82.52
76858;BME280;65830;0.000;0.000;2022-12-11T04:07:05;97551.63;;;10.29;82.76
76858;BME280;65830;0.000;0.000;2022-12-11T04:09:31;97556.97;;;10.51;82.82
76858;BME280;65830;0.000;0.000;2022-12-11T04:11:57;97546.53;;;10.71;82.27
76858;BME280;65830;0.000;0.000;2022-12-11T04:14:22;97549.78;;;10.66;81.90
76858;BME280;65830;0.000;0.000;2022-12-11T04:17:06;97552.06;;;10.76;81.56
76858;BME280;65830;0.000;0.000;2022-12-11T04:19:32;97549.16;;;10.92;81.21
76858;BME280;65830;0.000;0.000;2022-12-11T04:22:16;97549.81;;;11.01;80.60
76858;BME280;65830;0.000;0.000;2022-12-11T04:25:01;97548.19;;;11.00;80.19
76858;BME280;65830;0.000;0.000;2022-12-11T04:27:27;97553.41;;;11.22;79.72
76858;BME280;65830;0.000;0.000;2022-12-11T04:30:12;97528.59;;;11.36;79.24
76858;BME280;65830;0.000;0.000;2022-12-11T04:32:38;97530.31;;;11.50;78.15
76858;BME280;65830;0.000;0.000;2022-12-11T04:35:05;97540.31;;;11.55;77.55
76858;BME280;65830;0.000;0.000;2022-12-11T04:37:30;97551.19;;;11.53;77.04
76858;BME280;65830;0.000;0.000;2022-12-11T04:39:56;97545.72;;;11.75;76.76
76858;BME280;65830;0.000;0.000;2022-12-11T04:42:21;97549.59;;;12.14;75.22
76858;BME280;65830;0.000;0.000;2022-12-11T04:44:47;97546.53;;;12.30;74.39
76858;BME280;65830;0.000;0.000;2022-12-11T04:47:12;97545.72;;;12.23;74.36
76858;BME280;65830;0.000;0.000;2022-12-11T04:49:38;97553.72;;;12.23;74.45
76858;BME280;65830;0.000;0.000;2022-12-11T04:52:03;97565.28;;;12.09;75.13
76858;BME280;65830;0.000;0.000;2022-12-11T04:54:29;97558.22;;;12.36;74.20
76858;BME280;65830;0.000;0.000;2022-12-11T04:56:55;97564.59;;;12.55;73.12
76858;BME280;65830;0.000;0.000;2022-12-11T04:59:20;97558.06;;;12.51;72.80
76858;BME280;65830;0.000;0.000;2022-12-11T05:01:46;97564.06;;;11.98;74.33
76858;BME280;65830;0.000;0.000;2022-12-11T05:04:11;97580.59;;;11.59;75.70
76858;BME280;65830;0.000;0.000;2022-12-11T05:06:37;97572.16;;;11.42;76.74
76858;BME280;65830;0.000;0.000;2022-12-11T05:09:02;97595.63;;;11.10;77.65
76858;BME280;65830;0.000;0.000;2022-12-11T05:11:28;97591.66;;;10.99;78.16
76858;BME280;65830;0.000;0.000;2022-12-11T05:13:53;97581.75;;;10.86;78.99
76858;BME280;65830;0.000;0.000;2022-12-11T05:16:19;97594.50;;;10.76;79.17
76858;BME280;65830;0.000;0.000;2022-12-11T05:18:44;97589.00;;;10.99;78.97
76858;BME280;65830;0.000;0.000;2022-12-11T05:21:12;97597.75;;;10.71;79.09
76858;BME280;65830;0.000;0.000;2022-12-11T05:23:38;97598.66;;;11.07;78.71
76858;BME280;65830;0.000;0.000;2022-12-11T05:26:05;97595.34;;;10.77;78.73
76858;BME280;65830;0.000;0.000;2022-12-11T05:28:31;97593.19;;;10.65;79.22
76858;BME280;65830;0.000;0.000;2022-12-11T05:30:58;97586.78;;;10.53;79.45
76858;BME280;65830;0.000;0.000;2022-12-11T05:33:24;97593.19;;;10.44;80.02
76858;BME280;65830;0.000;0.000;2022-12-11T05:35:49;97613.28;;;10.75;79.63
76858;BME280;65830;0.000;0.000;2022-12-11T05:38:15;97626.03;;;10.64;79.41
76858;BME280;65830;0.000;0.000;2022-12-11T05:40:40;97628.81;;;10.78;79.58
76858;BME280;65830;0.000;0.000;2022-12-11T05:43:06;97626.97;;;10.78;78.87
76858;BME280;65830;0.000;0.000;2022-12-11T05:45:32;97633.25;;;10.70;79.05
76858;BME280;65830;0.000;0.000;2022-12-11T05:47:58;97626.66;;;10.45;79.78
76858;BME280;65830;0.000;0.000;2022-12-11T05:50:23;97612.88;;;10.34;80.24
76858;BME280;65830;0.000;0.000;2022-12-11T05:52:49;97623.50;;;10.20;80.90
76858;BME280;65830;0.000;0.000;2022-12-11T05:55:14;97629.59;;;10.20;80.82
76858;BME280;65830;0.000;0.000;2022-12-11T05:57:40;97627.22;;;10.25;80.97
76858;BME280;65830;0.000;0.000;2022-12-11T06:00:06;97635.94;;;10.19;81.14
76858;BME280;65830;0.000;0.000;2022-12-11T06:02:33;97663.47;;;10.55;80.53
76858;BME280;65830;0.000;0.000;2022-12-11T06:04:59;97650.38;;;10.31;80.26
76858;BME280;65830;0.000;0.000;2022-12-11T06:07:24;97675.50;;;10.36;80.56
76858;BME280;65830;0.000;0.000;2022-12-11T06:09:50;97677.50;;;10.33;80.72
76858;BME280;65830;0.000;0.000;2022-12-11T06:12:15;97694.31;;;10.41;80.64
76858;BME280;65830;0.000;0.000;2022-12-11T06:14:41;97697.66;;;10.86;79.20
76858;BME280;65830;0.000;0.000;2022-12-11T06:17:06;97703.72;;;10.80;79.09
76858;BME280;65830;0.000;0.000;2022-12-11T06:19:32;97705.69;;;10.56;79.51
76858;BME280;65830;0.000;0.000;2022-12-11T06:21:57;97704.88;;;10.70;79.80
76858;BME280;65830;0.000;0.000;2022-12-11T06:24:22;97698.66;;;10.63;79.70
76858;BME280;65830;0.000;0.000;2022-12-11T06:26:48;97693.63;;;10.68;79.67
76858;BME280;65830;0.000;0.000;2022-12-11T06:29:13;97702.81;;;10.51;80.02
76858;BME280;65830;0.000;0.000;2022-12-11T06:31:40;97701.47;;;10.98;79.26
76858;BME280;65830;0.000;0.000;2022-12-11T06:34:05;97696.78;;;10.79;79.00
76858;BME280;65830;0.000;0.000;2022-12-11T06:36:30;97704.53;;;11.23;77.94
76858;BME280;65830;0.000;0.000;2022-12-11T06:38:56;97699.69;;;11.05;77.77
76858;BME280;65830;0.000;0.000;2022-12-11T06:41:21;97690.91;;;11.05;78.19
76858;BME280;65830;0.000;0.000;2022-12-11T06:43:47;97692.34;;;11.07;78.29
76858;BME280;65830;0.000;0.000;2022-12-11T06:46:14;97691.34;;;11.08;77.94
76858;BME280;65830;0.000;0.000;2022-12-11T06:48:40;97700.94;;;11.31;77.34
76858;BME280;65830;0.000;0.000;2022-12-11T06:51:10;97699.31;;;11.30;77.10
76858;BME280;65830;0.000;0.000;2022-12-11T06:53:37;97704.63;;;11.30;77.26
76858;BME280;65830;0.000;0.000;2022-12-11T06:56:06;97709.63;;;11.46;76.87
76858;BME280;65830;0.000;0.000;2022-12-11T06:58:33;97722.44;;;11.64;76.26
76858;BME280;65830;0.000;0.000;2022-12-11T07:00:58;97720.78;;;11.63;76.12
76858;BME280;65830;0.000;0.000;2022-12-11T07:03:24;97717.09;;;11.58;76.57
76858;BME280;65830;0.000;0.000;2022-12-11T07:05:49;97716.22;;;11.50;76.57
76858;BME280;65830;0.000;0.000;2022-12-11T07:08:15;97703.41;;;11.61;76.90
76858;BME280;65830;0.000;0.000;2022-12-11T07:10:40;97709.97;;;11.65;76.45
76858;BME280;65830;0.000;0.000;2022-12-11T07:13:06;97721.03;;;11.90;76.08
76858;BME280;65830;0.000;0.000;2022-12-11T07:15:31;97730.50;;;12.06;75.52
76858;BME280;65830;0.000;0.000;2022-12-11T07:17:57;97736.22;;;12.03;75.77
76858;BME280;65830;0.000;0.000;2022-12-11T07:20:22;97729.28;;;12.02;74.92
76858;BME280;65830;0.000;0.000;2022-12-11T07:22:48;97733.63;;;12.16;75.25
76858;BME280;65830;0.000;0.000;2022-12-11T07:25:13;97718.50;;;12.17;75.19
76858;BME280;65830;0.000;0.000;2022-12-11T07:27:39;97717.47;;;12.11;75.53
76858;BME280;65830;0.000;0.000;2022-12-11T07:30:06;97721.00;;;12.25;75.10
76858;BME280;65830;0.000;0.000;2022-12-11T07:32:32;97724.31;;;12.27;74.29
76858;BME280;65830;0.000;0.000;2022-12-11T07:34:57;97726.13;;;12.26;75.27
76858;BME280;65830;0.000;0.000;2022-12-11T07:37:23;97738.25;;;12.36;74.83
76858;BME280;65830;0.000;0.000;2022-12-11T07:39:49;97737.88;;;12.04;75.44
76858;BME280;65830;0.000;0.000;2022-12-11T07:42:14;97744.81;;;12.05;75.53
76858;BME280;65830;0.000;0.000;2022-12-11T07:44:40;97732.00;;;12.15;75.69
76858;BME280;65830;0.000;0.000;2022-12-11T07:47:05;97727.06;;;12.47;74.92
76858;BME280;65830;0.000;0.000;2022-12-11T07:49:31;97719.59;;;12.29;74.75
76858;BME280;65830;0.000;0.000;2022-12-11T07:51:56;97723.34;;;12.48;74.83
76858;BME280;65830;0.000;0.000;2022-12-11T07:54:21;97735.66;;;12.49;74.50
76858;BME280;65830;0.000;0.000;2022-12-11T07:56:47;97720.53;;;12.56;74.33
76858;BME280;65830;0.000;0.000;2022-12-11T07:59:13;97730.94;;;12.51;74.36
76858;BME280;65830;0.000;0.000;2022-12-11T08:01:38;97727.69;;;12.56;74.83
76858;BME280;65830;0.000;0.000;2022-12-11T08:04:09;97718.53;;;12.65;74.23
76858;BME280;65830;0.000;0.000;2022-12-11T08:06:36;97739.72;;;13.13;73.07
76858;BME280;65830;0.000;0.000;2022-12-11T08:09:03;97744.81;;;13.01;73.17
76858;BME280;65830;0.000;0.000;2022-12-11T08:11:28;97747.50;;;13.21;73.11
76858;BME280;65830;0.000;0.000;2022-12-11T08:13:54;97759.66;;;13.30;71.95
76858;BME280;65830;0.000;0.000;2022-12-11T08:16:20;97755.13;;;13.31;72.23
76858;BME280;65830;0.000;0.000;2022-12-11T08:18:46;97757.13;;;13.16;73.33
76858;BME280;65830;0.000;0.000;2022-12-11T08:21:29;97758.19;;;13.28;73.19
76858;BME280;65830;0.000;0.000;2022-12-11T08:23:55;97756.69;;;13.12;73.23
76858;BME280;65830;0.000;0.000;2022-12-11T08:26:22;97737.53;;;13.37;73.00
76858;BME280;65830;0.000;0.000;2022-12-11T08:28:47;97734.66;;;13.51;72.65
76858;BME280;65830;0.000;0.000;2022-12-11T08:31:14;97728.13;;;13.54;72.40
76858;BME280;65830;0.000;0.000;2022-12-11T08:33:40;97725.22;;;13.36;73.49
76858;BME280;65830;0.000;0.000;2022-12-11T08:36:06;97724.41;;;13.55;72.85
76858;BME280;65830;0.000;0.000;2022-12-11T08:38:33;97724.16;;;13.97;71.42
76858;BME280;65830;0.000;0.000;2022-12-11T08:41:06;97721.09;;;14.00;71.29
76858;BME280;65830;0.000;0.000;2022-12-11T08:43:32;97718.19;;;14.15;71.28
76858;BME280;65830;0.000;0.000;2022-12-11T08:45:57;97712.41;;;14.31;71.01
76858;BME280;65830;0.000;0.000;2022-12-11T08:48:23;97725.50;;;14.33;70.65
76858;BME280;65830;0.000;0.000;2022-12-11T08:50:48;97718.50;;;14.45;71.01
76858;BME280;65830;0.000;0.000;2022-12-11T08:53:14;97720.13;;;14.59;70.62
76858;BME280;65830;0.000;0.000;2022-12-11T08:55:39;97735.97;;;14.93;69.48
76858;BME280;65830;0.000;0.000;2022-12-11T08:58:05;97752.41;;;14.89;69.44
76858;BME280;65830;0.000;0.000;2022-12-11T09:00:30;97763.69;;;14.92;69.39
76858;BME280;65830;0.000;0.000;2022-12-11T09:02:56;97769.00;;;14.98;69.87
76858;BME280;65830;0.000;0.000;2022-12-11T09:05:21;97783.44;;;15.29;67.92
76858;BME280;65830;0.000;0.000;2022-12-11T09:07:47;97783.94;;;15.76;66.28
76858;BME280;65830;0.000;0.000;2022-12-11T09:10:12;97770.47;;;15.58;67.65
76858;BME280;65830;0.000;0.000;2022-12-11T09:12:37;97768.38;;;15.66;67.27
76858;BME280;65830;0.000;0.000;2022-12-11T09:15:03;97767.78;;;15.58;67.91
76858;BME280;65830;0.000;0.000;2022-12-11T09:17:29;97765.38;;;15.49;67.87
76858;BME280;65830;0.000;0.000;2022-12-11T09:19:54;97766.50;;;15.67;67.38
76858;BME280;65830;0.000;0.000;2022-12-11T09:22:20;97749.09;;;16.08;65.67
76858;BME280;65830;0.000;0.000;2022-12-11T09:24:45;97734.44;;;16.11;65.58
76858;BME280;65830;0.000;0.000;2022-12-11T09:27:11;97735.16;;;15.99;66.48
76858;BME280;65830;0.000;0.000;2022-12-11T09:29:37;97735.94;;;16.06;65.35
76858;BME280;65830;0.000;0.000;2022-12-11T09:32:03;97730.66;;;16.00;65.87
76858;BME280;65830;0.000;0.000;2022-12-11T09:34:28;97720.47;;;15.90;66.22
76858;BME280;65830;0.000;0.000;2022-12-11T09:36:54;97714.53;;;16.06;66.46
76858;BME280;65830;0.000;0.000;2022-12-11T09:39:19;97705.41;;;15.96;66.15
76858;BME280;65830;0.000;0.000;2022-12-11T09:47:11;97679.03;;;16.66;64.68
76858;BME280;65830;0.000;0.000;2022-12-11T09:49:37;97669.69;;;16.57;62.68
76858;BME280;65830;0.000;0.000;2022-12-11T09:54:32;97667.91;;;17.12;59.86
76858;BME280;65830;0.000;0.000;2022-12-11T09:57:08;97686.63;;;16.70;62.18
76858;BME280;65830;0.000;0.000;2022-12-11T10:12:32;97685.31;;;16.42;63.43
76858;BME280;65830;0.000;0.000;2022-12-11T10:17:30;97669.75;;;16.99;62.54
76858;BME280;65830;0.000;0.000;2022-12-11T10:19:56;97667.09;;;17.11;61.15
76858;BME280;65830;0.000;0.000;2022-12-11T10:22:28;97661.75;;;16.81;62.42
76858;BME280;65830;0.000;0.000;2022-12-11T10:24:56;97649.38;;;17.10;62.78
76858;BME280;65830;0.000;0.000;2022-12-11T10:27:24;97652.44;;;17.25;62.25
76858;BME280;65830;0.000;0.000;2022-12-11T10:29:54;97643.81;;;17.35;61.30
76858;BME280;65830;0.000;0.000;2022-12-11T10:32:23;97647.31;;;17.24;61.64
76858;BME280;65830;0.000;0.000;2022-12-11T10:34:50;97633.13;;;17.47;60.83
76858;BME280;65830;0.000;0.000;2022-12-11T10:37:20;97620.28;;;17.49;61.77
76858;BME280;65830;0.000;0.000;2022-12-11T10:39:46;97600.81;;;17.54;60.88
76858;BME280;65830;0.000;0.000;2022-12-11T10:42:15;97602.22;;;17.68;60.29
76858;BME280;65830;0.000;0.000;2022-12-11T10:44:41;97598.69;;;17.79;60.76
76858;BME280;65830;0.000;0.000;2022-12-11T10:47:18;97581.91;;;17.96;60.80
76858;BME280;65830;0.000;0.000;2022-12-11T10:49:55;97582.97;;;18.23;58.23
76858;BME280;65830;0.000;0.000;2022-12-11T10:54:53;97596.03;;;18.32;54.52
76858;BME280;65830;0.000;0.000;2022-12-11T10:57:24;97586.38;;;18.19;54.94
76858;BME280;65830;0.000;0.000;2022-12-11T10:59:50;97585.91;;;18.22;55.24
76858;BME280;65830;0.000;0.000;2022-12-11T11:02:35;97584.06;;;18.11;56.57
76858;BME280;65830;0.000;0.000;2022-12-11T11:10:34;97597.38;;;18.46;55.39
76858;BME280;65830;0.000;0.000;2022-12-11T11:13:00;97601.88;;;18.29;55.80
76858;BME280;65830;0.000;0.000;2022-12-11T11:15:27;97595.47;;;18.30;55.59
76858;BME280;65830;0.000;0.000;2022-12-11T11:17:53;97598.75;;;18.20;55.85
76858;BME280;65830;0.000;0.000;2022-12-11T11:20:20;97596.00;;;18.03;56.99
76858;BME280;65830;0.000;0.000;2022-12-11T11:22:48;97592.97;;;17.99;56.96
76858;BME280;65830;0.000;0.000;2022-12-11T11:25:24;97599.34;;;18.22;56.62
76858;BME280;65830;0.000;0.000;2022-12-11T11:27:56;97592.28;;;17.92;57.94
76858;BME280;65830;0.000;0.000;2022-12-11T11:30:29;97592.25;;;18.16;57.19
76858;BME280;65830;0.000;0.000;2022-12-11T11:32:57;97594.88;;;18.28;56.31
76858;BME280;65830;0.000;0.000;2022-12-11T11:35:25;97594.47;;;18.07;56.37
76858;BME280;65830;0.000;0.000;2022-12-11T11:40:27;97590.31;;;17.64;58.85
76858;BME280;65830;0.000;0.000;2022-12-11T11:45:21;97588.25;;;17.19;59.69
76858;BME280;65830;0.000;0.000;2022-12-11T11:47:57;97591.50;;;17.33;59.53
76858;BME280;65830;0.000;0.000;2022-12-11T11:50:25;97575.16;;;17.34;60.25
76858;BME280;65830;0.000;0.000;2022-12-11T12:00:48;97586.47;;;17.83;57.31
76858;BME280;65830;0.000;0.000;2022-12-11T12:03:15;97572.81;;;17.73;57.54
76858;BME280;65830;0.000;0.000;2022-12-11T12:11:33;97560.50;;;17.25;59.07
76858;BME280;65830;0.000;0.000;2022-12-11T12:21:46;97555.22;;;17.54;59.22
76858;BME280;65830;0.000;0.000;2022-12-11T12:26:40;97550.47;;;17.32;60.73
76858;BME280;65830;0.000;0.000;2022-12-11T12:34:11;97536.38;;;17.49;60.10
76858;BME280;65830;0.000;0.000;2022-12-11T12:44:37;97545.56;;;17.53;59.73
76858;BME280;65830;0.000;0.000;2022-12-11T12:47:09;97549.03;;;17.89;58.27
76858;BME280;65830;0.000;0.000;2022-12-11T12:49:39;97544.22;;;17.79;58.48
76858;BME280;65830;0.000;0.000;2022-12-11T12:52:09;97544.38;;;17.72;58.64
76858;BME280;65830;0.000;0.000;2022-12-11T12:54:36;97546.03;;;17.50;59.89
76858;BME280;65830;0.000;0.000;2022-12-11T12:57:02;97542.53;;;17.49;60.55
76858;BME280;65830;0.000;0.000;2022-12-11T12:59:28;97538.84;;;17.38;60.91
76858;BME280;65830;0.000;0.000;2022-12-11T13:01:55;97551.03;;;17.58;60.20
76858;BME280;65830;0.000;0.000;2022-12-11T13:04:26;97548.09;;;17.71;59.56
76858;BME280;65830;0.000;0.000;2022-12-11T13:06:52;97547.63;;;17.74;59.63
76858;BME280;65830;0.000;0.000;2022-12-11T13:09:22;97548.84;;;17.55;60.57
76858;BME280;65830;0.000;0.000;2022-12-11T13:11:49;97549.28;;;17.52;60.85
76858;BME280;65830;0.000;0.000;2022-12-11T13:16:44;97546.81;;;17.62;60.64
76858;BME280;65830;0.000;0.000;2022-12-11T13:24:31;97543.56;;;16.77;63.84
76858;BME280;65830;0.000;0.000;2022-12-11T13:27:10;97541.84;;;16.83;63.92
76858;BME280;65830;0.000;0.000;2022-12-11T13:29:46;97542.72;;;16.77;63.73
76858;BME280;65830;0.000;0.000;2022-12-11T13:34:41;97540.47;;;16.50;64.78
76858;BME280;65830;0.000;0.000;2022-12-11T13:37:25;97547.47;;;16.51;65.25
76858;BME280;65830;0.000;0.000;2022-12-11T13:39:52;97534.81;;;16.28;65.89
76858;BME280;65830;0.000;0.000;2022-12-11T13:42:20;97555.66;;;16.80;63.17
76858;BME280;65830;0.000;0.000;2022-12-11T13:44:47;97544.66;;;16.46;64.43
76858;BME280;65830;0.000;0.000;2022-12-11T13:47:14;97552.97;;;16.68;63.91
76858;BME280;65830;0.000;0.000;2022-12-11T13:49:42;97555.84;;;16.66;63.94
76858;BME280;65830;0.000;0.000;2022-12-11T13:52:19;97554.72;;;16.74;63.96
76858;BME280;65830;0.000;0.000;2022-12-11T13:54:49;97563.28;;;16.83;63.55
76858;BME280;65830;0.000;0.000;2022-12-11T13:57:16;97564.84;;;16.72;63.00
76858;BME280;65830;0.000;0.000;2022-12-11T13:59:46;97569.72;;;16.63;64.05
76858;BME280;65830;0.000;0.000;2022-12-11T14:02:34;97561.88;;;16.92;62.07
76858;BME280;65830;0.000;0.000;2022-12-11T14:04:59;97570.03;;;16.97;61.82
76858;BME280;65830;0.000;0.000;2022-12-11T14:07:27;97576.66;;;16.83;60.75
76858;BME280;65830;0.000;0.000;2022-12-11T14:09:55;97579.59;;;16.93;57.85
76858;BME280;65830;0.000;0.000;2022-12-11T14:12:23;97588.91;;;17.02;57.66
76858;BME280;65830;0.000;0.000;2022-12-11T14:14:52;97586.34;;;17.07;54.55
76858;BME280;65830;0.000;0.000;2022-12-11T14:17:29;97595.34;;;17.13;54.64
76858;BME280;65830;0.000;0.000;2022-12-11T14:19:56;97603.78;;;16.86;55.42
76858;BME280;65830;0.000;0.000;2022-12-11T14:22:23;97604.25;;;16.83;55.82
76858;BME280;65830;0.000;0.000;2022-12-11T14:24:56;97604.63;;;16.87;56.00
76858;BME280;65830;0.000;0.000;2022-12-11T14:27:22;97609.84;;;16.82;56.67
76858;BME280;65830;0.000;0.000;2022-12-11T14:29:48;97612.78;;;16.62;57.13
76858;BME280;65830;0.000;0.000;2022-12-11T14:32:19;97602.22;;;16.67;55.72
76858;BME280;65830;0.000;0.000;2022-12-11T14:34:48;97603.78;;;16.56;57.13
76858;BME280;65830;0.000;0.000;2022-12-11T14:37:14;97610.53;;;16.28;59.84
76858;BME280;65830;0.000;0.000;2022-12-11T14:39:46;97617.81;;;16.40;58.52
76858;BME280;65830;0.000;0.000;2022-12-11T14:42:16;97617.19;;;16.56;57.53
76858;BME280;65830;0.000;0.000;2022-12-11T14:47:15;97634.25;;;16.74;50.75
76858;BME280;65830;0.000;0.000;2022-12-11T14:52:18;97630.38;;;17.00;49.24
76858;BME280;65830;0.000;0.000;2022-12-11T14:54:50;97627.69;;;17.00;49.07